Aérodrome :
LOGIN :

S'inscrire | Disclaimer

   EN    FR    IT 

 










Légende :    VFR   VFR Marginal   IFR   IFR Intensif   IFR Très Intensif
Visi : 
Plafond : 
>= 8 km
>= 3000ft
5 à 8 km
1000 à 3000 ft
1500m à 5 km
500 à 1000 ft
800 à 1500m
200 à 500 ft
< 800m
< 200 ft
Symboles :   Orages  Brouillard  Fortes neiges  Fortes précipitations  Vent > 20 kt
SIGMETs :   Divers  Orages  Givrage  Turbulence  Onde Orograph.  Cendres Volcan.






- Altitude de l'aérodrome : 751 ft
- Code IATA : ENC


LFSN - Nancy Essey

DERNIER METAR :
  • 221130Z AUTO 04003KT 2500 BR OVC004 M02/M03 Q1034

METARs EXPIRÉS :
  • 221100Z AUTO 09004KT 2700 BR OVC005 M02/M03 Q1035
  • 221030Z AUTO 07004KT 040V100 2700 BR OVC004 M02/M03 Q1035
  • 221000Z AUTO 05006KT 2700 BR OVC004 M02/M03 Q1035
  • 220930Z AUTO 04006KT 010V070 2800 BR OVC004 M02/M03 Q1035
  • 220900Z AUTO 03009KT 2400 BR OVC004 M02/M03 Q1035

Prévision TAF périmée.



MET'MAP, la Météo Aéronautique d'un coup d'oeil ! - Copyright ORBIFLY Décembre 2007 - Disclaimer

ORBIFLY MET'MAP TEAM :

Programmation & Développement : Alexandra Zaïnal
Sur une idée originale de : Baudouin d'Aumeries
Assistance à la programmation : Marc-Olivier Méhu
Soutien technique & logistique : Manuel Goepfert

Contact : metmap@orbifly.com




SOURCES & CREDITS :

   NOAA